Terminal Aerodrome Forecast
Issued by NWS Albany, NY

Home | Current Version | Previous Version | Text Only | Print | Product List | Glossary On
Versions: 1 2 3 4 5 6 7 8 9 10 11 12 13 14 15 16 17 18 19 20 21 22 23 24 25 26 27 28 29 30 31 32 33 34 35 36 37
000
FTUS41 KALY 021721
TAFALB
TAF
KALB 021721Z 0218/0318 26012G18KT P6SM BKN045
     FM022300 27015G25KT P6SM VCSH OVC045
     FM030500 30012G20KT P6SM VCSH SCT030 BKN045
     FM031400 31013G22KT P6SM VCSH BKN050=

USA.gov is the U.S. government's official web portal to all federal, state and local government web resources and services.